createdAt,value
2023-04-08T00:00:59.744Z,12.81
2023-04-08T00:01:59.824Z,12.61
2023-04-08T00:02:59.789Z,12.90
2023-04-08T00:03:59.831Z,12.71
2023-04-08T00:04:59.813Z,13.00
2023-04-08T00:05:59.742Z,12.71
2023-04-08T00:06:59.735Z,12.71
2023-04-08T00:07:59.776Z,12.61
2023-04-08T00:08:59.736Z,12.61
2023-04-08T00:09:59.740Z,12.71
2023-04-08T00:10:59.740Z,12.71
2023-04-08T00:11:59.744Z,12.81
2023-04-08T00:12:59.732Z,12.81
2023-04-08T00:13:59.740Z,12.81
2023-04-08T00:14:59.733Z,12.71
2023-04-08T00:15:59.744Z,12.81
2023-04-08T00:16:59.769Z,12.71
2023-04-08T00:17:59.798Z,12.71
2023-04-08T00:18:59.730Z,12.81
2023-04-08T00:19:59.736Z,12.61
2023-04-08T00:20:59.735Z,12.71
2023-04-08T00:21:59.735Z,12.71
2023-04-08T00:22:59.725Z,12.71
2023-04-08T00:23:59.760Z,13.00
2023-04-08T00:24:59.724Z,12.90
2023-04-08T00:25:59.734Z,12.71
2023-04-08T00:26:59.741Z,12.61
2023-04-08T00:27:59.737Z,13.00
2023-04-08T00:28:59.725Z,12.70
2023-04-08T00:29:59.732Z,13.00
2023-04-08T00:30:59.720Z,12.81
2023-04-08T00:31:59.732Z,12.61
2023-04-08T00:32:59.768Z,12.61
2023-04-08T00:33:59.732Z,12.71
2023-04-08T00:34:59.724Z,12.71
2023-04-08T00:35:59.792Z,13.00
2023-04-08T00:36:59.722Z,12.90
2023-04-08T00:37:59.728Z,12.90
2023-04-08T00:38:59.721Z,12.90
2023-04-08T00:39:59.772Z,12.99
2023-04-08T00:40:59.720Z,13.00
2023-04-08T00:41:59.724Z,12.71
2023-04-08T00:42:59.730Z,12.99
2023-04-08T00:43:59.725Z,13.00
2023-04-08T00:44:59.721Z,12.81
2023-04-08T00:45:59.742Z,12.90
2023-04-08T00:46:59.714Z,12.90
2023-04-08T00:47:59.771Z,12.90
2023-04-08T00:48:59.714Z,12.90
2023-04-08T00:49:59.722Z,12.90
2023-04-08T00:50:59.717Z,12.90
2023-04-08T00:51:59.724Z,12.90
2023-04-08T00:52:59.715Z,12.90
2023-04-08T00:53:59.720Z,12.90
2023-04-08T00:54:59.717Z,12.81
2023-04-08T00:55:59.742Z,12.90
2023-04-08T00:56:59.710Z,12.90
2023-04-08T00:57:59.723Z,12.71
2023-04-08T00:58:59.713Z,12.90
2023-04-08T00:59:59.726Z,12.81
2023-04-08T01:00:59.710Z,12.90
2023-04-08T01:01:59.802Z,12.90
2023-04-08T01:02:59.788Z,12.90
2023-04-08T01:03:59.810Z,12.90
2023-04-08T01:04:59.710Z,12.90
2023-04-08T01:05:59.714Z,12.90
2023-04-08T01:06:59.708Z,12.81
2023-04-08T01:07:59.723Z,12.90
2023-04-08T01:08:59.708Z,12.81
2023-04-08T01:09:59.713Z,12.71
2023-04-08T01:10:59.706Z,12.81
2023-04-08T01:11:59.739Z,12.81
2023-04-08T01:12:59.705Z,12.71
2023-04-08T01:13:59.715Z,12.71
2023-04-08T01:14:59.704Z,12.71
2023-04-08T01:15:59.730Z,12.81
2023-04-08T01:16:59.704Z,12.81
2023-04-08T01:17:59.779Z,12.71
2023-04-08T01:18:59.702Z,12.71
2023-04-08T01:19:59.708Z,12.81
2023-04-08T01:20:59.700Z,12.81
2023-04-08T01:21:59.707Z,12.71
2023-04-08T01:22:59.699Z,12.71
2023-04-08T01:23:59.706Z,12.81
2023-04-08T01:24:59.707Z,12.90
2023-04-08T01:25:59.709Z,12.81
2023-04-08T01:26:59.698Z,12.71
2023-04-08T01:27:59.732Z,12.71
2023-04-08T01:28:59.697Z,12.81
2023-04-08T01:29:59.705Z,12.71
2023-04-08T01:30:59.779Z,12.81
2023-04-08T01:31:59.702Z,12.81
2023-04-08T01:32:59.746Z,12.70
2023-04-08T01:33:59.705Z,12.71
2023-04-08T01:34:59.693Z,12.81
2023-04-08T01:35:59.774Z,12.81
2023-04-08T01:36:59.694Z,12.71
2023-04-08T01:37:59.701Z,12.81
2023-04-08T01:38:59.693Z,12.81
2023-04-08T01:39:59.702Z,12.71
2023-04-08T01:40:59.702Z,12.90
2023-04-08T01:41:59.700Z,12.71
2023-04-08T01:42:59.693Z,12.71
2023-04-08T01:43:59.727Z,12.81
2023-04-08T01:44:59.693Z,12.71
2023-04-08T01:45:59.700Z,12.81
2023-04-08T01:46:59.795Z,12.71
2023-04-08T01:47:59.751Z,12.81
2023-04-08T01:48:59.695Z,12.81
2023-04-08T01:49:59.701Z,12.71
2023-04-08T01:50:59.692Z,12.71
2023-04-08T01:51:59.698Z,12.71
2023-04-08T01:52:59.688Z,12.81
2023-04-08T01:53:59.697Z,12.90
2023-04-08T01:54:59.693Z,12.71
2023-04-08T01:55:59.732Z,12.71
2023-04-08T01:56:59.690Z,12.90
2023-04-08T01:57:59.698Z,12.81
2023-04-08T01:58:59.690Z,12.90
2023-04-08T01:59:59.741Z,12.71
2023-04-08T02:00:59.687Z,12.90
2023-04-08T02:01:59.811Z,12.81
2023-04-08T02:02:59.872Z,12.81
2023-04-08T02:03:59.807Z,12.71
2023-04-08T02:04:59.694Z,12.71
2023-04-08T02:05:59.698Z,12.81
2023-04-08T02:06:59.688Z,12.81
2023-04-08T02:07:59.696Z,12.90
2023-04-08T02:08:59.686Z,12.90
2023-04-08T02:09:59.691Z,12.81
2023-04-08T02:10:59.686Z,12.71
2023-04-08T02:11:59.690Z,12.71
2023-04-08T02:12:59.684Z,12.90
2023-04-08T02:13:59.692Z,12.90
2023-04-08T02:14:59.682Z,12.90
2023-04-08T02:15:59.745Z,12.71
2023-04-08T02:16:59.679Z,12.81
2023-04-08T02:17:59.740Z,12.81
2023-04-08T02:18:59.700Z,12.81
2023-04-08T02:19:59.702Z,12.81
2023-04-08T02:20:59.678Z,12.90
2023-04-08T02:21:59.691Z,12.90
2023-04-08T02:22:59.682Z,13.00
2023-04-08T02:24:00.487Z,12.90
2023-04-08T02:24:59.676Z,12.81
2023-04-08T02:25:59.692Z,12.90
2023-04-08T02:26:59.676Z,12.90
2023-04-08T02:27:59.689Z,12.90
2023-04-08T02:28:59.675Z,12.61
2023-04-08T02:29:59.682Z,12.90
2023-04-08T02:30:59.676Z,12.90
2023-04-08T02:31:59.718Z,12.90
2023-04-08T02:32:59.734Z,12.90
2023-04-08T02:33:59.685Z,12.51
2023-04-08T02:34:59.673Z,12.90
2023-04-08T02:35:59.713Z,13.00
2023-04-08T02:36:59.671Z,12.81
2023-04-08T02:37:59.679Z,12.81
2023-04-08T02:38:59.673Z,13.00
2023-04-08T02:39:59.687Z,12.71
2023-04-08T02:40:59.669Z,12.71
2023-04-08T02:41:59.680Z,12.90
2023-04-08T02:42:59.670Z,12.71
2023-04-08T02:43:59.675Z,12.61
2023-04-08T02:44:59.674Z,12.90
2023-04-08T02:45:59.684Z,12.90
2023-04-08T02:46:59.666Z,12.90
2023-04-08T02:47:59.739Z,12.71
2023-04-08T02:48:59.668Z,12.90
2023-04-08T02:49:59.694Z,13.00
2023-04-08T02:50:59.675Z,12.90
2023-04-08T02:51:59.677Z,12.90
2023-04-08T02:52:59.678Z,12.81
2023-04-08T02:53:59.671Z,12.90
2023-04-08T02:54:59.665Z,12.90
2023-04-08T02:55:59.669Z,12.71
2023-04-08T02:56:59.662Z,12.90
2023-04-08T02:57:59.686Z,12.90
2023-04-08T02:58:59.658Z,12.71
2023-04-08T02:59:59.666Z,12.81
2023-04-08T03:00:59.734Z,12.90
2023-04-08T03:01:59.753Z,13.00
2023-04-08T03:02:59.998Z,12.71
2023-04-08T03:03:59.806Z,12.81
2023-04-08T03:04:59.657Z,12.71
2023-04-08T03:05:59.665Z,12.81
2023-04-08T03:06:59.655Z,12.90
2023-04-08T03:07:59.665Z,12.71
2023-04-08T03:08:59.660Z,12.71
2023-04-08T03:09:59.662Z,13.00
2023-04-08T03:10:59.654Z,12.90
2023-04-08T03:11:59.677Z,12.71
2023-04-08T03:12:59.653Z,12.71
2023-04-08T03:13:59.660Z,12.61
2023-04-08T03:14:59.651Z,12.81
2023-04-08T03:15:59.657Z,13.00
2023-04-08T03:16:59.721Z,12.61
2023-04-08T03:17:59.691Z,12.90
2023-04-08T03:18:59.649Z,13.00
2023-04-08T03:19:59.679Z,12.51
2023-04-08T03:20:59.650Z,12.81
2023-04-08T03:21:59.658Z,12.90
2023-04-08T03:22:59.649Z,12.71
2023-04-08T03:23:59.655Z,12.90
2023-04-08T03:24:59.649Z,12.61
2023-04-08T03:25:59.656Z,12.71
2023-04-08T03:26:59.646Z,12.90
2023-04-08T03:27:59.659Z,12.90
2023-04-08T03:28:59.654Z,12.81
2023-04-08T03:29:59.655Z,12.90
2023-04-08T03:30:59.646Z,12.90
2023-04-08T03:31:59.663Z,12.90
2023-04-08T03:32:59.690Z,12.90
2023-04-08T03:33:59.651Z,12.81
2023-04-08T03:34:59.645Z,13.00
2023-04-08T03:35:59.721Z,12.81
2023-04-08T03:36:59.642Z,12.90
2023-04-08T03:37:59.653Z,12.90
2023-04-08T03:38:59.671Z,12.90
2023-04-08T03:39:59.649Z,13.00
2023-04-08T03:40:59.641Z,12.81
2023-04-08T03:41:59.653Z,12.90
2023-04-08T03:42:59.646Z,12.90
2023-04-08T03:43:59.641Z,12.90
2023-04-08T03:44:59.651Z,12.90
2023-04-08T03:45:59.673Z,12.81
2023-04-08T03:46:59.647Z,13.00
2023-04-08T03:47:59.667Z,12.90
2023-04-08T03:48:59.658Z,12.81
2023-04-08T03:49:59.640Z,12.90
2023-04-08T03:50:59.649Z,12.81
2023-04-08T03:51:59.658Z,12.90
2023-04-08T03:52:59.644Z,12.81
2023-04-08T03:53:59.637Z,12.90
2023-04-08T03:54:59.645Z,12.90
2023-04-08T03:55:59.635Z,12.90
2023-04-08T03:56:59.642Z,12.81
2023-04-08T03:57:59.632Z,12.90
2023-04-08T03:58:59.638Z,12.90
2023-04-08T03:59:59.634Z,12.90
2023-04-08T04:00:59.644Z,12.90
2023-04-08T04:01:59.793Z,12.90
2023-04-08T04:02:59.742Z,12.90
2023-04-08T04:03:59.794Z,12.90
2023-04-08T04:04:59.703Z,12.81
2023-04-08T04:05:59.636Z,12.90
2023-04-08T04:06:59.646Z,12.90
2023-04-08T04:07:59.650Z,12.90
2023-04-08T04:08:59.634Z,12.81
2023-04-08T04:09:59.629Z,13.00
2023-04-08T04:10:59.633Z,12.90
2023-04-08T04:11:59.623Z,12.90
2023-04-08T04:12:59.630Z,12.90
2023-04-08T04:13:59.622Z,12.81
2023-04-08T04:14:59.629Z,12.71
2023-04-08T04:15:59.651Z,12.71
2023-04-08T04:16:59.641Z,12.81
2023-04-08T04:17:59.755Z,12.71
2023-04-08T04:18:59.769Z,12.81
2023-04-08T04:19:59.619Z,12.90
2023-04-08T04:20:59.627Z,12.90
2023-04-08T04:21:59.634Z,12.71
2023-04-08T04:22:59.632Z,12.71
2023-04-08T04:23:59.647Z,12.81
2023-04-08T04:24:59.624Z,12.90
2023-04-08T04:25:59.618Z,13.00
2023-04-08T04:26:59.622Z,13.19
2023-04-08T04:27:59.614Z,13.20
2023-04-08T04:28:59.623Z,13.10
2023-04-08T04:29:59.617Z,13.10
2023-04-08T04:30:59.647Z,12.90
2023-04-08T04:31:59.618Z,13.10
2023-04-08T04:32:59.667Z,13.20
2023-04-08T04:33:59.616Z,13.20
2023-04-08T04:34:59.618Z,13.10
2023-04-08T04:35:59.645Z,13.00
2023-04-08T04:36:59.616Z,12.80
2023-04-08T04:37:59.619Z,12.81
2023-04-08T04:38:59.617Z,13.09
2023-04-08T04:39:59.633Z,13.09
2023-04-08T04:40:59.618Z,13.09
2023-04-08T04:41:59.611Z,12.99
2023-04-08T04:42:59.614Z,13.29
2023-04-08T04:43:59.611Z,13.39
2023-04-08T04:44:59.613Z,13.39
2023-04-08T04:45:59.693Z,13.29
2023-04-08T04:46:59.625Z,13.29
2023-04-08T04:47:59.625Z,12.99
2023-04-08T04:48:59.611Z,12.99
2023-04-08T04:49:59.604Z,13.29
2023-04-08T04:50:59.611Z,12.99
2023-04-08T04:51:59.611Z,13.09
2023-04-08T04:52:59.614Z,13.19
2023-04-08T04:53:59.604Z,13.19
2023-04-08T04:54:59.609Z,13.19
2023-04-08T04:55:59.632Z,13.19
2023-04-08T04:56:59.610Z,13.09
2023-04-08T04:57:59.610Z,13.48
2023-04-08T04:58:59.605Z,13.29
2023-04-08T04:59:59.608Z,13.29
2023-04-08T05:00:59.610Z,13.77
2023-04-08T05:01:59.826Z,13.48
2023-04-08T05:02:59.753Z,13.48
2023-04-08T05:03:59.612Z,13.57
2023-04-08T05:04:59.693Z,13.67
2023-04-08T05:05:59.608Z,13.57
2023-04-08T05:06:59.658Z,13.67
2023-04-08T05:07:59.601Z,13.57
2023-04-08T05:08:59.605Z,13.67
2023-04-08T05:09:59.601Z,13.67
2023-04-08T05:10:59.621Z,13.67
2023-04-08T05:11:59.651Z,13.67
2023-04-08T05:12:59.617Z,13.67
2023-04-08T05:13:59.597Z,13.77
2023-04-08T05:14:59.627Z,13.77
2023-04-08T05:15:59.706Z,13.77
2023-04-08T05:16:59.605Z,13.87
2023-04-08T05:17:59.654Z,13.77
2023-04-08T05:18:59.604Z,13.48
2023-04-08T05:19:59.600Z,13.67
2023-04-08T05:20:59.607Z,13.48
2023-04-08T05:21:59.599Z,13.57
2023-04-08T05:22:59.600Z,13.67
2023-04-08T05:23:59.592Z,13.48
2023-04-08T05:24:59.600Z,13.57
2023-04-08T05:25:59.595Z,13.67
2023-04-08T05:26:59.599Z,13.57
2023-04-08T05:27:59.613Z,13.57
2023-04-08T05:28:59.597Z,13.67
2023-04-08T05:29:59.590Z,13.77
2023-04-08T05:30:59.637Z,13.67
2023-04-08T05:31:59.593Z,13.87
2023-04-08T05:33:00.812Z,13.57
2023-04-08T05:33:59.589Z,13.57
2023-04-08T05:34:59.595Z,13.67
2023-04-08T05:35:59.642Z,13.67
2023-04-08T05:36:59.604Z,13.67
2023-04-08T05:37:59.587Z,13.57
2023-04-08T05:39:00.744Z,13.67
2023-04-08T05:39:59.755Z,13.77
2023-04-08T05:40:59.597Z,13.57
2023-04-08T05:41:59.585Z,13.67
2023-04-08T05:42:59.592Z,13.57
2023-04-08T05:43:59.725Z,13.67
2023-04-08T05:44:59.593Z,13.77
2023-04-08T05:45:59.583Z,13.57
2023-04-08T05:46:59.660Z,13.57
2023-04-08T05:47:59.627Z,13.48
2023-04-08T05:48:59.591Z,13.57
2023-04-08T05:49:59.582Z,13.48
2023-04-08T05:50:59.592Z,13.48
2023-04-08T05:51:59.578Z,13.57
2023-04-08T05:52:59.586Z,13.48
2023-04-08T05:53:59.579Z,13.68
2023-04-08T05:54:59.581Z,13.58
2023-04-08T05:55:59.574Z,13.68
2023-04-08T05:56:59.581Z,13.68
2023-04-08T05:57:59.572Z,13.58
2023-04-08T05:58:59.587Z,13.48
2023-04-08T05:59:59.597Z,13.48
2023-04-08T06:00:59.581Z,13.48
2023-04-08T06:01:59.756Z,13.58
2023-04-08T06:02:59.893Z,13.58
2023-04-08T06:03:59.815Z,13.57
2023-04-08T06:04:59.634Z,13.57
2023-04-08T06:05:59.567Z,13.58
2023-04-08T06:06:59.575Z,13.48
2023-04-08T06:07:59.562Z,13.58
2023-04-08T06:08:59.576Z,13.58
2023-04-08T06:09:59.561Z,13.87
2023-04-08T06:10:59.564Z,13.78
2023-04-08T06:11:59.556Z,13.68
2023-04-08T06:12:59.566Z,13.48
2023-04-08T06:13:59.559Z,13.48
2023-04-08T06:14:59.561Z,13.78
2023-04-08T06:15:59.579Z,13.48
2023-04-08T06:16:59.637Z,13.78
2023-04-08T06:17:59.613Z,13.78
2023-04-08T06:18:59.559Z,13.39
2023-04-08T06:19:59.551Z,13.58
2023-04-08T06:20:59.561Z,13.48
2023-04-08T06:21:59.550Z,13.78
2023-04-08T06:22:59.557Z,13.78
2023-04-08T06:23:59.552Z,13.78
2023-04-08T06:24:59.556Z,13.78
2023-04-08T06:25:59.549Z,13.39
2023-04-08T06:26:59.557Z,13.78
2023-04-08T06:27:59.547Z,13.29
2023-04-08T06:28:59.554Z,13.78
2023-04-08T06:29:59.547Z,13.78
2023-04-08T06:30:59.564Z,13.48
2023-04-08T06:31:59.607Z,13.39
2023-04-08T06:32:59.680Z,13.48
2023-04-08T06:33:59.545Z,13.68
2023-04-08T06:34:59.560Z,13.68
2023-04-08T06:35:59.557Z,13.39
2023-04-08T06:36:59.553Z,13.39
2023-04-08T06:37:59.550Z,13.68
2023-04-08T06:38:59.553Z,13.48
2023-04-08T06:39:59.695Z,13.78
2023-04-08T06:40:59.557Z,13.78
2023-04-08T06:41:59.544Z,13.48
2023-04-08T06:42:59.550Z,13.48
2023-04-08T06:43:59.541Z,13.48
2023-04-08T06:44:59.555Z,13.48
2023-04-08T06:45:59.580Z,13.48
2023-04-08T06:46:59.555Z,13.48
2023-04-08T06:47:59.660Z,13.48
2023-04-08T06:48:59.550Z,13.48
2023-04-08T06:49:59.547Z,13.58
2023-04-08T06:50:59.550Z,13.48
2023-04-08T06:51:59.540Z,13.58
2023-04-08T06:52:59.550Z,13.58
2023-04-08T06:53:59.537Z,13.58
2023-04-08T06:54:59.550Z,13.48
2023-04-08T06:55:59.537Z,13.48
2023-04-08T06:56:59.544Z,13.58
2023-04-08T06:57:59.537Z,13.58
2023-04-08T06:58:59.544Z,13.58
2023-04-08T06:59:59.742Z,13.68
2023-04-08T07:00:59.562Z,13.48
2023-04-08T07:01:59.734Z,13.48
2023-04-08T07:02:59.644Z,13.58
2023-04-08T07:03:59.603Z,13.68
2023-04-08T07:04:59.545Z,13.48
2023-04-08T07:05:59.545Z,13.58
2023-04-08T07:06:59.541Z,13.68
2023-04-08T07:07:59.534Z,13.58
2023-04-08T07:08:59.545Z,13.68
2023-04-08T07:09:59.534Z,13.58
2023-04-08T07:10:59.540Z,13.58
2023-04-08T07:11:59.531Z,13.58
2023-04-08T07:12:59.540Z,13.48
2023-04-08T07:13:59.536Z,13.58
2023-04-08T07:14:59.536Z,13.68
2023-04-08T07:15:59.529Z,13.68
2023-04-08T07:16:59.608Z,13.68
2023-04-08T07:17:59.588Z,13.58
2023-04-08T07:18:59.536Z,13.68
2023-04-08T07:19:59.549Z,13.58
2023-04-08T07:20:59.537Z,13.58
2023-04-08T07:21:59.528Z,13.57
2023-04-08T07:22:59.535Z,13.58
2023-04-08T07:23:59.526Z,13.87
2023-04-08T07:24:59.533Z,13.67
2023-04-08T07:25:59.528Z,13.77
2023-04-08T07:26:59.548Z,13.78
2023-04-08T07:27:59.525Z,13.77
2023-04-08T07:28:59.532Z,13.78
2023-04-08T07:29:59.528Z,13.87
2023-04-08T07:30:59.572Z,13.87
2023-04-08T07:31:59.531Z,13.67
2023-04-08T07:33:01.102Z,13.87
2023-04-08T07:33:59.534Z,13.87
2023-04-08T07:34:59.536Z,13.68
2023-04-08T07:35:59.623Z,13.68
2023-04-08T07:36:59.527Z,13.87
2023-04-08T07:37:59.521Z,13.87
2023-04-08T07:38:59.538Z,13.87
2023-04-08T07:39:59.523Z,13.87
2023-04-08T07:40:59.541Z,13.87
2023-04-08T07:41:59.518Z,13.87
2023-04-08T07:42:59.525Z,13.87
2023-04-08T07:43:59.516Z,13.96
2023-04-08T07:44:59.525Z,13.78
2023-04-08T07:45:59.539Z,13.87
2023-04-08T07:46:59.524Z,13.77
2023-04-08T07:47:59.572Z,13.77
2023-04-08T07:48:59.521Z,13.77
2023-04-08T07:49:59.516Z,13.78
2023-04-08T07:51:08.420Z,13.96
2023-04-08T07:51:59.536Z,13.87
2023-04-08T07:52:59.519Z,13.87
2023-04-08T07:53:59.516Z,13.77
2023-04-08T07:54:59.517Z,13.78
2023-04-08T07:55:59.537Z,13.78
2023-04-08T07:56:59.516Z,13.87
2023-04-08T07:57:59.515Z,13.87
2023-04-08T07:58:59.509Z,13.87
2023-04-08T07:59:59.518Z,13.87
2023-04-08T08:00:59.545Z,13.87
2023-04-08T08:01:59.542Z,13.87
2023-04-08T08:02:59.603Z,13.87
2023-04-08T08:03:59.828Z,13.87
2023-04-08T08:04:59.604Z,13.78
2023-04-08T08:05:59.516Z,13.87
2023-04-08T08:06:59.517Z,13.78
2023-04-08T08:07:59.538Z,13.87
2023-04-08T08:08:59.509Z,13.77
2023-04-08T08:09:59.520Z,13.87
2023-04-08T08:10:59.503Z,13.87
2023-04-08T08:11:59.519Z,13.87
2023-04-08T08:12:59.509Z,13.97
2023-04-08T08:13:59.514Z,13.77
2023-04-08T08:14:59.518Z,13.96
2023-04-08T08:15:59.572Z,13.87
2023-04-08T08:16:59.502Z,13.87
2023-04-08T08:17:59.541Z,13.87
2023-04-08T08:18:59.537Z,13.97
2023-04-08T08:19:59.528Z,13.87
2023-04-08T08:20:59.526Z,13.87
2023-04-08T08:21:59.511Z,13.87
2023-04-08T08:22:59.499Z,13.77
2023-04-08T08:23:59.543Z,13.77
2023-04-08T08:24:59.531Z,13.87
2023-04-08T08:25:59.510Z,13.87
2023-04-08T08:26:59.496Z,13.77
2023-04-08T08:27:59.506Z,13.87
2023-04-08T08:28:59.497Z,13.87
2023-04-08T08:29:59.505Z,13.78
2023-04-08T08:30:59.516Z,13.78
2023-04-08T08:31:59.503Z,13.77
2023-04-08T08:32:59.516Z,13.68
2023-04-08T08:33:59.505Z,13.87
2023-04-08T08:34:59.496Z,13.78
2023-04-08T08:35:59.524Z,13.77
2023-04-08T08:36:59.496Z,13.97
2023-04-08T08:37:59.509Z,13.77
2023-04-08T08:38:59.492Z,13.77
2023-04-08T08:39:59.534Z,13.78
2023-04-08T08:40:59.510Z,13.97
2023-04-08T08:41:59.502Z,13.96
2023-04-08T08:42:59.492Z,13.97
2023-04-08T08:43:59.497Z,13.96
2023-04-08T08:44:59.496Z,13.78
2023-04-08T08:45:59.550Z,13.87
2023-04-08T08:46:59.579Z,13.78
2023-04-08T08:47:59.559Z,13.97
2023-04-08T08:48:59.489Z,13.97
2023-04-08T08:49:59.493Z,13.97
2023-04-08T08:50:59.486Z,13.87
2023-04-08T08:51:59.499Z,14.07
2023-04-08T08:52:59.486Z,13.96
2023-04-08T08:53:59.494Z,13.87
2023-04-08T08:54:59.502Z,13.87
2023-04-08T08:56:17.216Z,13.96
2023-04-08T08:56:59.503Z,13.87
2023-04-08T08:57:59.497Z,13.96
2023-04-08T08:58:59.486Z,13.96
2023-04-08T08:59:59.501Z,13.87
2023-04-08T09:00:59.484Z,14.06
2023-04-08T09:01:59.567Z,13.97
2023-04-08T09:02:59.682Z,13.78
2023-04-08T09:03:59.570Z,13.78
2023-04-08T09:04:59.715Z,13.87
2023-04-08T09:05:59.493Z,13.96
2023-04-08T09:06:59.478Z,13.87
2023-04-08T09:07:59.485Z,13.87
2023-04-08T09:08:59.503Z,13.87
2023-04-08T09:09:59.512Z,13.87
2023-04-08T09:10:59.477Z,13.78
2023-04-08T09:11:59.506Z,13.97
2023-04-08T09:12:59.479Z,13.96
2023-04-08T09:13:59.483Z,13.78
2023-04-08T09:14:59.483Z,13.97
2023-04-08T09:15:59.510Z,13.97
2023-04-08T09:16:59.474Z,13.97
2023-04-08T09:17:59.510Z,13.68
2023-04-08T09:18:59.474Z,13.87
2023-04-08T09:19:59.480Z,13.78
2023-04-08T09:20:59.473Z,13.97
2023-04-08T09:21:59.480Z,13.87
2023-04-08T09:22:59.478Z,13.78
2023-04-08T09:23:59.480Z,13.78
2023-04-08T09:24:59.474Z,13.97
2023-04-08T09:25:59.480Z,13.78
2023-04-08T09:26:59.480Z,13.97
2023-04-08T09:27:59.514Z,13.87
2023-04-08T09:28:59.631Z,13.97
2023-04-08T09:29:59.483Z,13.87
2023-04-08T09:30:59.474Z,13.87
2023-04-08T09:31:59.589Z,13.87
2023-04-08T09:32:59.512Z,13.87
2023-04-08T09:33:59.486Z,13.78
2023-04-08T09:34:59.477Z,13.78
2023-04-08T09:35:59.528Z,13.78
2023-04-08T09:36:59.484Z,13.78
2023-04-08T09:37:59.484Z,13.87
2023-04-08T09:38:59.474Z,13.78
2023-04-08T09:39:59.502Z,13.87
2023-04-08T09:40:59.468Z,13.87
2023-04-08T09:41:59.474Z,13.87
2023-04-08T09:42:59.465Z,13.87
2023-04-08T09:43:59.504Z,13.97
2023-04-08T09:44:59.466Z,13.78
2023-04-08T09:45:59.524Z,13.78
2023-04-08T09:46:59.467Z,13.78
2023-04-08T09:47:59.503Z,13.97
2023-04-08T09:48:59.487Z,13.97
2023-04-08T09:49:59.472Z,13.68
2023-04-08T09:50:59.468Z,13.97
2023-04-08T09:51:59.469Z,13.87
2023-04-08T09:52:59.464Z,13.97
2023-04-08T09:53:59.470Z,13.78
2023-04-08T09:54:59.461Z,14.07
2023-04-08T09:55:59.468Z,13.87
2023-04-08T09:56:59.460Z,14.07
2023-04-08T09:57:59.474Z,13.97
2023-04-08T09:58:59.465Z,13.97
2023-04-08T09:59:59.487Z,13.97
2023-04-08T10:00:59.482Z,14.07
2023-04-08T10:01:59.563Z,13.87
2023-04-08T10:02:59.607Z,13.87
2023-04-08T10:03:59.619Z,13.87
2023-04-08T10:04:59.549Z,13.87
2023-04-08T10:05:59.462Z,13.97
2023-04-08T10:06:59.468Z,13.87
2023-04-08T10:07:59.463Z,14.07
2023-04-08T10:08:59.456Z,13.87
2023-04-08T10:09:59.467Z,13.87
2023-04-08T10:10:59.456Z,13.97
2023-04-08T10:11:59.463Z,13.97
2023-04-08T10:12:59.452Z,13.97
2023-04-08T10:13:59.462Z,13.97
2023-04-08T10:14:59.452Z,13.97
2023-04-08T10:15:59.488Z,14.07
2023-04-08T10:16:59.591Z,13.87
2023-04-08T10:17:59.478Z,13.87
2023-04-08T10:18:59.455Z,13.87
2023-04-08T10:19:59.459Z,13.97
2023-04-08T10:20:59.455Z,13.97
2023-04-08T10:21:59.460Z,13.87
2023-04-08T10:22:59.482Z,13.97
2023-04-08T10:23:59.549Z,14.07
2023-04-08T10:24:59.452Z,13.87
2023-04-08T10:25:59.458Z,13.97
2023-04-08T10:26:59.449Z,13.97
2023-04-08T10:27:59.466Z,14.07
2023-04-08T10:28:59.459Z,13.97
2023-04-08T10:29:59.458Z,14.17
2023-04-08T10:30:59.459Z,14.17
2023-04-08T10:32:00.119Z,14.17
2023-04-08T10:32:59.551Z,14.26
2023-04-08T10:33:59.459Z,14.17
2023-04-08T10:34:59.448Z,14.07
2023-04-08T10:35:59.551Z,14.26
2023-04-08T10:36:59.457Z,14.26
2023-04-08T10:37:59.449Z,14.07
2023-04-08T10:38:59.455Z,14.07
2023-04-08T10:39:59.448Z,14.17
2023-04-08T10:40:59.451Z,14.26
2023-04-08T10:41:59.445Z,14.07
2023-04-08T10:42:59.447Z,14.07
2023-04-08T10:43:59.446Z,14.17
2023-04-08T10:44:59.438Z,14.07
2023-04-08T10:45:59.479Z,14.26
2023-04-08T10:46:59.438Z,14.26
2023-04-08T10:47:59.521Z,14.26
2023-04-08T10:48:59.435Z,14.26
2023-04-08T10:49:59.443Z,14.17
2023-04-08T10:50:59.447Z,14.17
2023-04-08T10:51:59.448Z,14.17
2023-04-08T10:52:59.442Z,13.97
2023-04-08T10:53:59.444Z,14.17
2023-04-08T10:54:59.435Z,14.17
2023-04-08T10:55:59.449Z,14.17
2023-04-08T10:56:59.433Z,14.26
2023-04-08T10:57:59.463Z,14.07
2023-04-08T10:58:59.433Z,14.26
2023-04-08T10:59:59.442Z,14.07
2023-04-08T11:00:59.458Z,14.26
2023-04-08T11:01:59.488Z,14.07
2023-04-08T11:02:59.597Z,14.07
2023-04-08T11:03:59.606Z,14.07
2023-04-08T11:04:59.432Z,14.07
2023-04-08T11:05:59.441Z,14.17
2023-04-08T11:06:59.438Z,14.07
2023-04-08T11:07:59.441Z,13.97
2023-04-08T11:08:59.430Z,14.07
2023-04-08T11:09:59.442Z,14.07
2023-04-08T11:10:59.431Z,14.07
2023-04-08T11:11:59.436Z,14.07
2023-04-08T11:12:59.431Z,14.07
2023-04-08T11:13:59.459Z,14.07
2023-04-08T11:14:59.431Z,14.07
2023-04-08T11:15:59.477Z,14.07
2023-04-08T11:16:59.435Z,14.17
2023-04-08T11:17:59.512Z,14.07
2023-04-08T11:18:59.430Z,14.17
2023-04-08T11:19:59.458Z,14.26
2023-04-08T11:21:00.472Z,14.17
2023-04-08T11:21:59.434Z,14.17
2023-04-08T11:22:59.428Z,13.97
2023-04-08T11:23:59.444Z,14.17
2023-04-08T11:24:59.425Z,14.26
2023-04-08T11:25:59.439Z,14.26
2023-04-08T11:26:59.427Z,14.17
2023-04-08T11:27:59.442Z,14.17
2023-04-08T11:28:59.425Z,14.17
2023-04-08T11:29:59.432Z,14.17
2023-04-08T11:30:59.487Z,14.17
2023-04-08T11:31:59.430Z,14.17
2023-04-08T11:32:59.460Z,14.26
2023-04-08T11:33:59.431Z,14.26
2023-04-08T11:34:59.421Z,14.17
2023-04-08T11:35:59.504Z,14.26
2023-04-08T11:36:59.424Z,14.07
2023-04-08T11:37:59.429Z,13.97
2023-04-08T11:38:59.445Z,14.07
2023-04-08T11:39:59.577Z,14.17
2023-04-08T11:40:59.514Z,14.17
2023-04-08T11:41:59.427Z,13.97
2023-04-08T11:42:59.422Z,13.97
2023-04-08T11:43:59.428Z,14.17
2023-04-08T11:44:59.426Z,14.26
2023-04-08T11:45:59.435Z,14.07
2023-04-08T11:46:59.419Z,14.26
2023-04-08T11:47:59.470Z,14.26
2023-04-08T11:48:59.413Z,14.07
2023-04-08T11:49:59.422Z,14.26
2023-04-08T11:50:59.412Z,14.17
2023-04-08T11:51:59.446Z,14.17
2023-04-08T11:52:59.411Z,14.26
2023-04-08T11:53:59.419Z,14.17
2023-04-08T11:54:59.427Z,14.07
2023-04-08T11:55:59.418Z,14.17
2023-04-08T11:56:59.414Z,14.17
2023-04-08T11:57:59.427Z,13.97
2023-04-08T11:58:59.410Z,13.97
2023-04-08T11:59:59.419Z,13.87
2023-04-08T12:00:59.414Z,13.97
2023-04-08T12:01:59.502Z,13.87
2023-04-08T12:02:59.502Z,13.87
2023-04-08T12:03:59.623Z,13.87
2023-04-08T12:04:59.472Z,14.07
2023-04-08T12:05:59.423Z,13.78
2023-04-08T12:06:59.423Z,13.97
2023-04-08T12:07:59.460Z,13.97
2023-04-08T12:08:59.411Z,13.87
2023-04-08T12:09:59.419Z,13.97
2023-04-08T12:11:06.386Z,14.07
2023-04-08T12:11:59.414Z,13.87
2023-04-08T12:12:59.416Z,13.68
2023-04-08T12:13:59.421Z,13.78
2023-04-08T12:14:59.414Z,13.78
2023-04-08T12:15:59.476Z,13.68
2023-04-08T12:16:59.420Z,13.78
2023-04-08T12:17:59.481Z,13.87
2023-04-08T12:18:59.420Z,13.78
2023-04-08T12:19:59.404Z,13.87
2023-04-08T12:20:59.414Z,13.87
2023-04-08T12:21:59.403Z,13.78
2023-04-08T12:22:59.413Z,13.78
2023-04-08T12:23:59.427Z,13.68
2023-04-08T12:24:59.454Z,13.87
2023-04-08T12:25:59.412Z,13.97
2023-04-08T12:26:59.420Z,13.78
2023-04-08T12:27:59.404Z,13.68
2023-04-08T12:28:59.411Z,13.87
2023-04-08T12:29:59.409Z,13.78
2023-04-08T12:30:59.415Z,13.97
2023-04-08T12:31:59.466Z,13.78
2023-04-08T12:32:59.515Z,13.87
2023-04-08T12:33:59.403Z,13.87
2023-04-08T12:34:59.409Z,14.07
2023-04-08T12:35:59.563Z,13.78
2023-04-08T12:36:59.409Z,13.87
2023-04-08T12:37:59.405Z,13.87
2023-04-08T12:38:59.409Z,13.87
2023-04-08T12:39:59.429Z,13.78
2023-04-08T12:40:59.409Z,13.78
2023-04-08T12:41:59.402Z,13.97
2023-04-08T12:42:59.407Z,13.78
2023-04-08T12:43:59.410Z,13.87
2023-04-08T12:44:59.408Z,13.87
2023-04-08T12:45:59.405Z,13.78
2023-04-08T12:46:59.467Z,13.78
2023-04-08T12:47:59.459Z,13.97
2023-04-08T12:49:04.251Z,13.87
2023-04-08T12:49:59.401Z,13.97
2023-04-08T12:50:59.406Z,13.87
2023-04-08T12:51:59.398Z,13.78
2023-04-08T12:52:59.408Z,13.78